Columbia, South Carolina
Current Conditions -  °F | °C
As of 2:53 AM on Monday 22 Dec 2014 (Local Time) from KCUB Reporting Station
Light Rain Light Rain  
Wind Chill:   Ceiling: 800
Heat Index:   Visibility: 4mi
Dew Point:   Wind: 3mph
Humidity: 90%   Direction: 70°ENE
Pressure: 30.12"   Gusts: NA
Location:  34°N, 81.04°W
Report Text: KCUB 220753Z AUTO 07003KT 4SM -RA BR OVC008 07/06 A3012 RMK AO2 RAE28B44 CIG 006V011 SLP199 P0002 T00720056
Loading
Personal Weather Stations






























Interactive Weather Map New forecast layout! Learn more

10-Day Weather Forecast

Advertisements
Track Severe Weather on mobile